Time;durP1;ratioP1;P1;durP2;ratioP2;P2;SDS_P1;SDS_P2;PMS_P1;PMS_P2;Temp;Humidity;BMP_temperature;BMP_pressure;BME280_temperature;BME280_humidity;BME280_pressure;Samples;Min_cycle;Max_cycle;Signal;HPM_P1;HPM_P2
2022/03/07 00:01:47;;;;;;;13.52;5.38;;;1.00;99.90;;;;;;5044164;28;20052;-77
2022/03/07 00:04:16;;;;;;;10.18;5.18;;;1.00;99.90;;;;;;5039064;28;20029;-77
2022/03/07 00:06:46;;;;;;;12.40;5.50;;;1.00;99.90;;;;;;5047247;28;20127;-77
2022/03/07 00:09:11;;;;;;;12.75;5.80;;;0.90;99.90;;;;;;5050249;28;20117;-77
2022/03/07 00:11:37;;;;;;;10.75;5.82;;;1.70;99.90;;;;;;5041082;28;20065;-77
2022/03/07 00:14:03;;;;;;;10.20;5.80;;;0.90;99.90;;;;;;5044146;28;20044;-77
2022/03/07 00:16:30;;;;;;;11.02;6.00;;;0.90;99.90;;;;;;5044304;28;20124;-77
2022/03/07 00:18:56;;;;;;;9.32;5.80;;;0.90;99.90;;;;;;5045155;28;20045;-77
2022/03/07 00:21:22;;;;;;;11.43;6.30;;;0.80;99.90;;;;;;5040707;28;20036;-77
2022/03/07 00:23:51;;;;;;;11.25;6.75;;;0.80;99.90;;;;;;5064961;28;20380;-77
2022/03/07 00:26:18;;;;;;;12.95;6.68;;;0.70;99.90;;;;;;5040959;28;20051;-77
2022/03/07 00:28:44;;;;;;;10.98;6.35;;;0.70;99.90;;;;;;5058749;28;20052;-77
2022/03/07 00:31:11;;;;;;;13.00;7.57;;;0.00;99.90;;;;;;5064963;28;20040;-77
2022/03/07 00:33:36;;;;;;;14.80;7.07;;;0.60;99.90;;;;;;5064430;28;20381;-77
2022/03/07 00:36:04;;;;;;;10.35;6.93;;;0.60;99.90;;;;;;5040430;28;20052;-77
2022/03/07 00:38:29;;;;;;;15.77;7.35;;;0.50;99.90;;;;;;5040078;28;20067;-77
2022/03/07 00:40:55;;;;;;;12.25;6.63;;;0.70;99.90;;;;;;5043813;28;20446;-76
2022/03/07 00:43:21;;;;;;;15.40;7.55;;;0.50;99.90;;;;;;5047430;28;20051;-77
2022/03/07 00:45:48;;;;;;;12.27;6.80;;;0.40;99.90;;;;;;5059978;28;20041;-77
2022/03/07 00:48:14;;;;;;;13.00;6.68;;;0.40;99.90;;;;;;5037687;28;20091;-77
2022/03/07 00:50:42;;;;;;;13.63;6.40;;;0.50;99.90;;;;;;5042302;28;20102;-77
2022/03/07 00:53:09;;;;;;;13.32;8.02;;;0.40;99.90;;;;;;5058919;28;20040;-77
2022/03/07 00:55:36;;;;;;;18.17;8.82;;;0.40;99.90;;;;;;5057092;28;20060;-77
2022/03/07 00:58:01;;;;;;;11.63;6.80;;;0.40;99.90;;;;;;5040445;28;20084;-77
2022/03/07 01:00:27;;;;;;;13.55;6.72;;;0.40;99.90;;;;;;5037847;28;21377;-77
2022/03/07 01:02:53;;;;;;;16.77;8.65;;;0.30;99.90;;;;;;5069039;28;20044;-77
2022/03/07 01:05:19;;;;;;;14.43;7.65;;;0.30;99.90;;;;;;5037601;28;20040;-77
2022/03/07 01:07:46;;;;;;;13.95;9.15;;;0.30;99.90;;;;;;5034390;28;20052;-77
2022/03/07 01:10:12;;;;;;;11.73;6.60;;;0.30;99.90;;;;;;5037913;28;20090;-77
2022/03/07 01:12:38;;;;;;;10.90;5.50;;;0.30;99.90;;;;;;5044570;28;20051;-77
2022/03/07 01:15:05;;;;;;;12.10;6.22;;;0.30;99.90;;;;;;5044075;28;20040;-77
2022/03/07 01:17:31;;;;;;;11.88;6.22;;;0.20;99.90;;;;;;5041573;28;20412;-77
2022/03/07 01:19:57;;;;;;;10.25;5.57;;;0.20;99.90;;;;;;5046237;28;20049;-77
2022/03/07 01:22:22;;;;;;;9.77;5.80;;;0.10;99.90;;;;;;5046021;28;20570;-76
2022/03/07 01:24:48;;;;;;;15.45;7.07;;;0.10;99.90;;;;;;5041330;28;20037;-77
2022/03/07 01:27:13;;;;;;;13.15;7.82;;;0.00;99.90;;;;;;5056955;28;20037;-77
2022/03/07 01:29:39;;;;;;;16.38;9.52;;;0.10;99.90;;;;;;5069234;28;20036;-76
2022/03/07 01:32:05;;;;;;;14.35;9.85;;;0.00;99.90;;;;;;5067747;28;20059;-77
2022/03/07 01:34:31;;;;;;;13.02;8.30;;;0.00;99.90;;;;;;5044999;28;20076;-77
2022/03/07 01:36:57;;;;;;;12.32;7.47;;;0.20;99.90;;;;;;5081546;28;20083;-77
2022/03/07 01:39:23;;;;;;;14.63;8.43;;;0.10;99.90;;;;;;5048826;28;20040;-77
2022/03/07 01:41:49;;;;;;;14.32;7.93;;;0.00;99.90;;;;;;5050898;28;20058;-77
2022/03/07 01:44:24;;;;;;;13.15;7.43;;;0.00;99.90;;;;;;5067835;28;20119;-76
2022/03/07 01:46:50;;;;;;;12.32;6.93;;;-0.10;99.90;;;;;;5048942;28;20060;-77
2022/03/07 01:49:16;;;;;;;14.02;6.38;;;0.00;99.90;;;;;;5059323;28;20041;-77
2022/03/07 01:51:43;;;;;;;15.20;7.05;;;-0.10;99.90;;;;;;5057861;28;20087;-77
2022/03/07 01:54:11;;;;;;;11.65;6.15;;;-0.10;99.90;;;;;;5080662;28;20148;-77
2022/03/07 01:56:36;;;;;;;10.32;5.82;;;-0.10;99.90;;;;;;5040129;28;20091;-77
2022/03/07 01:59:09;;;;;;;10.38;5.68;;;-0.20;99.90;;;;;;5042965;28;20045;-77
2022/03/07 02:01:35;;;;;;;14.15;6.15;;;-0.20;99.90;;;;;;5044609;28;20764;-76
2022/03/07 02:04:00;;;;;;;8.38;5.32;;;0.90;99.90;;;;;;5058881;28;20052;-77
2022/03/07 02:06:27;;;;;;;9.15;5.05;;;-0.20;99.90;;;;;;5057817;28;20037;-77
2022/03/07 02:08:54;;;;;;;10.95;5.53;;;-0.30;99.90;;;;;;5040761;28;20049;-77
2022/03/07 02:11:20;;;;;;;12.30;6.00;;;-0.30;99.90;;;;;;5042169;28;20044;-77
2022/03/07 02:13:45;;;;;;;12.80;5.97;;;-0.30;99.90;;;;;;5047159;28;20546;-76
2022/03/07 02:16:14;;;;;;;12.73;5.47;;;-0.30;99.90;;;;;;5039386;28;20045;-77
2022/03/07 02:18:40;;;;;;;11.88;6.15;;;0.10;99.90;;;;;;5041508;28;20049;-77
2022/03/07 02:21:15;;;;;;;15.68;6.35;;;-0.30;99.90;;;;;;5065276;28;20052;-77
2022/03/07 02:23:42;;;;;;;10.55;5.63;;;-0.30;99.90;;;;;;5043535;28;20060;-77
2022/03/07 02:26:10;;;;;;;11.73;6.13;;;-0.30;99.90;;;;;;5046454;28;20500;-77
2022/03/07 02:28:38;;;;;;;9.48;5.10;;;-0.30;99.90;;;;;;5061650;28;20041;-77
2022/03/07 02:31:04;;;;;;;9.77;5.80;;;-0.10;99.90;;;;;;5043392;28;20090;-77
2022/03/07 02:33:29;;;;;;;10.48;5.65;;;-0.40;99.90;;;;;;5044166;28;20045;-77
2022/03/07 02:35:56;;;;;;;10.82;5.78;;;-0.40;99.90;;;;;;5046923;28;20399;-77
2022/03/07 02:38:23;;;;;;;12.48;6.13;;;-0.50;99.90;;;;;;5046965;28;20046;-76
2022/03/07 02:40:49;;;;;;;8.98;5.38;;;-0.50;99.90;;;;;;5049279;28;20136;-77
2022/03/07 02:43:15;;;;;;;10.95;5.70;;;-0.50;99.90;;;;;;5047349;28;20137;-77
2022/03/07 02:45:41;;;;;;;11.55;5.35;;;-0.50;99.90;;;;;;5045004;28;20044;-77
2022/03/07 02:48:07;;;;;;;12.98;5.15;;;-0.50;99.90;;;;;;5045091;28;20067;-76
2022/03/07 02:50:32;;;;;;;11.27;5.95;;;-0.50;99.90;;;;;;5040539;28;20044;-76
2022/03/07 02:52:58;;;;;;;12.25;5.43;;;-0.50;99.90;;;;;;5061953;28;20084;-77
2022/03/07 02:55:24;;;;;;;10.20;6.00;;;-0.20;99.90;;;;;;5042389;28;20040;-77
2022/03/07 02:57:51;;;;;;;10.07;5.35;;;-0.60;99.90;;;;;;5041538;28;20036;-77
2022/03/07 03:00:16;;;;;;;10.07;5.63;;;-0.60;99.90;;;;;;5047991;28;20040;-77
2022/03/07 03:02:43;;;;;;;10.55;5.60;;;-0.60;99.90;;;;;;5045964;28;20397;-77
2022/03/07 03:05:09;;;;;;;10.85;5.55;;;-0.60;99.90;;;;;;5040500;28;20051;-77
2022/03/07 03:07:36;;;;;;;10.57;6.20;;;-0.60;99.90;;;;;;5045059;28;20052;-77
2022/03/07 03:10:06;;;;;;;11.73;5.38;;;-0.70;99.90;;;;;;5044471;28;20055;-77
2022/03/07 03:12:33;;;;;;;10.85;5.97;;;-0.70;99.90;;;;;;5043263;28;20099;-77
2022/03/07 03:15:01;;;;;;;8.65;5.00;;;-0.70;99.90;;;;;;5042594;28;20040;-76
2022/03/07 03:17:27;;;;;;;12.77;6.00;;;-0.70;99.90;;;;;;5076006;28;20045;-76
2022/03/07 03:19:53;;;;;;;9.05;4.78;;;-0.70;99.90;;;;;;5041890;28;20049;-76
2022/03/07 03:22:19;;;;;;;10.98;5.40;;;-0.80;99.90;;;;;;5045175;28;20049;-77
2022/03/07 03:24:46;;;;;;;10.07;5.60;;;-0.80;99.90;;;;;;5060192;28;20504;-77
2022/03/07 03:27:12;;;;;;;8.75;5.93;;;-0.80;99.90;;;;;;5042299;28;20048;-77
2022/03/07 03:29:37;;;;;;;11.07;5.43;;;-0.80;99.90;;;;;;5046372;28;20045;-76
2022/03/07 03:32:04;;;;;;;13.10;5.72;;;-0.80;99.90;;;;;;5043244;28;20049;-76
2022/03/07 03:34:30;;;;;;;11.90;5.63;;;-0.90;99.90;;;;;;5047282;28;20040;-77
2022/03/07 03:36:55;;;;;;;10.50;5.60;;;-0.90;99.90;;;;;;5043338;28;20052;-77
2022/03/07 03:39:21;;;;;;;12.43;6.38;;;-0.90;99.90;;;;;;5059995;28;20459;-77
2022/03/07 03:41:47;;;;;;;11.02;5.53;;;-0.80;99.90;;;;;;5056715;28;20055;-76
2022/03/07 03:44:12;;;;;;;11.05;5.63;;;-0.90;99.90;;;;;;5039531;28;20036;-77
2022/03/07 03:46:38;;;;;;;13.43;5.97;;;-1.00;99.90;;;;;;5064833;28;20098;-77
2022/03/07 03:49:04;;;;;;;9.85;5.60;;;-1.00;99.90;;;;;;5060297;28;20044;-77
2022/03/07 03:51:30;;;;;;;9.77;5.38;;;-1.00;99.90;;;;;;5037185;28;20128;-76
2022/03/07 03:53:56;;;;;;;12.90;6.40;;;-0.90;99.90;;;;;;5023245;28;20045;-76
2022/03/07 03:56:21;;;;;;;10.30;5.65;;;-1.00;99.90;;;;;;5044072;28;20041;-77
2022/03/07 03:58:50;;;;;;;9.02;5.03;;;-1.00;99.90;;;;;;5042062;28;20074;-76
2022/03/07 04:01:16;;;;;;;10.20;5.38;;;-0.40;99.90;;;;;;5071888;28;20068;-76
2022/03/07 04:03:43;;;;;;;11.60;5.43;;;-1.00;99.90;;;;;;5039468;28;20052;-77
2022/03/07 04:06:09;;;;;;;13.18;4.85;;;-1.00;99.90;;;;;;5043906;28;20543;-77
2022/03/07 04:08:57;;;;;;;10.82;5.35;;;-1.00;99.90;;;;;;5065057;28;20127;-77
2022/03/07 04:11:23;;;;;;;12.43;5.80;;;-1.00;99.90;;;;;;5052286;28;20048;-77
2022/03/07 04:13:48;;;;;;;13.88;5.28;;;-1.00;99.90;;;;;;5038557;28;20575;-77
2022/03/07 04:16:15;;;;;;;9.43;5.20;;;-1.00;99.90;;;;;;5044531;28;20098;-76
2022/03/07 04:18:42;;;;;;;11.25;5.45;;;-1.00;99.90;;;;;;5045835;28;20087;-77
2022/03/07 04:21:07;;;;;;;9.40;5.40;;;-1.00;99.90;;;;;;5046597;28;20044;-77
2022/03/07 04:23:33;;;;;;;16.52;6.63;;;-1.10;99.90;;;;;;5042667;28;20053;-76
2022/03/07 04:25:59;;;;;;;9.77;5.40;;;-1.10;99.90;;;;;;5064207;28;20084;-76
2022/03/07 04:28:24;;;;;;;8.52;4.88;;;-1.10;99.90;;;;;;5043358;28;20044;-77
2022/03/07 04:30:50;;;;;;;10.00;5.10;;;-1.10;99.90;;;;;;5043279;28;20049;-77
2022/03/07 04:33:15;;;;;;;9.60;4.80;;;-1.20;99.90;;;;;;5059956;28;20071;-77
2022/03/07 04:35:41;;;;;;;10.27;5.53;;;-1.20;99.90;;;;;;5062654;28;20071;-76
2022/03/07 04:38:07;;;;;;;11.38;5.93;;;-1.20;99.90;;;;;;5044696;28;20114;-77
2022/03/07 04:40:33;;;;;;;13.38;6.55;;;-1.20;99.90;;;;;;5062393;28;20048;-77
2022/03/07 04:42:58;;;;;;;9.82;4.75;;;-1.20;99.90;;;;;;5043956;28;20081;-77
2022/03/07 04:45:24;;;;;;;9.82;5.47;;;-1.20;99.90;;;;;;5046891;28;20273;-76
2022/03/07 04:47:53;;;;;;;11.10;5.10;;;-1.30;99.90;;;;;;5046535;28;20110;-77
2022/03/07 04:50:18;;;;;;;10.65;5.78;;;-1.30;99.90;;;;;;5041812;28;20504;-77
2022/03/07 04:52:44;;;;;;;10.05;5.53;;;-1.30;99.90;;;;;;5046299;28;20352;-77
2022/03/07 04:55:12;;;;;;;10.43;5.38;;;-1.30;99.90;;;;;;5047712;28;20064;-76
2022/03/07 04:57:38;;;;;;;9.70;5.15;;;-1.80;99.90;;;;;;5046383;28;20492;-77
2022/03/07 05:00:07;;;;;;;9.10;5.20;;;-1.30;99.90;;;;;;5049600;28;20068;-77
2022/03/07 05:02:33;;;;;;;11.27;5.65;;;-1.30;99.90;;;;;;5044877;28;20439;-77
2022/03/07 05:04:58;;;;;;;9.48;5.15;;;-1.40;99.90;;;;;;5047975;28;20086;-77
2022/03/07 05:07:24;;;;;;;9.65;5.18;;;-1.40;99.90;;;;;;5047496;28;20492;-76
2022/03/07 05:09:50;;;;;;;13.27;6.07;;;-1.20;99.90;;;;;;5044921;28;20044;-76
2022/03/07 05:12:15;;;;;;;11.27;5.90;;;-1.40;99.90;;;;;;5064855;28;20048;-76
2022/03/07 05:14:41;;;;;;;10.77;5.68;;;-1.40;99.90;;;;;;5047647;28;20052;-77
2022/03/07 05:17:07;;;;;;;11.63;5.60;;;-1.40;99.90;;;;;;5046534;28;20044;-76
2022/03/07 05:19:32;;;;;;;9.43;5.45;;;-1.40;99.90;;;;;;5065526;28;20872;-77
2022/03/07 05:21:58;;;;;;;11.60;5.72;;;-1.50;99.90;;;;;;5064310;28;20416;-77
2022/03/07 05:24:25;;;;;;;13.80;5.50;;;-1.50;99.90;;;;;;5047655;28;20473;-77
2022/03/07 05:26:51;;;;;;;14.07;6.35;;;-1.50;99.90;;;;;;5039550;28;20068;-77
2022/03/07 05:29:17;;;;;;;10.20;5.43;;;-1.50;99.90;;;;;;5043217;28;20045;-77
2022/03/07 05:31:42;;;;;;;12.88;6.20;;;-2.30;99.90;;;;;;5045314;28;20053;-77
2022/03/07 05:34:08;;;;;;;10.73;5.75;;;-1.40;99.90;;;;;;5046379;28;20507;-77
2022/03/07 05:36:34;;;;;;;11.70;5.63;;;-1.60;99.90;;;;;;5047856;28;20515;-77
2022/03/07 05:38:59;;;;;;;14.00;6.10;;;-1.60;99.90;;;;;;5043310;28;20055;-77
2022/03/07 05:41:25;;;;;;;10.25;5.65;;;-1.60;99.90;;;;;;5041564;28;20888;-77
2022/03/07 05:43:50;;;;;;;11.30;6.10;;;-1.60;99.90;;;;;;5043286;28;20049;-77
2022/03/07 05:46:16;;;;;;;14.40;5.68;;;-0.50;99.90;;;;;;5042412;28;20156;-77
2022/03/07 05:48:42;;;;;;;12.68;6.00;;;-1.60;99.90;;;;;;5063030;28;20113;-77
2022/03/07 05:51:08;;;;;;;12.95;6.50;;;-1.80;99.90;;;;;;5042345;28;20045;-76
2022/03/07 05:53:33;;;;;;;10.02;6.20;;;-1.70;99.90;;;;;;5047442;28;20396;-77
2022/03/07 05:55:59;;;;;;;9.88;5.32;;;-0.70;99.90;;;;;;5078421;28;20047;-77
2022/03/07 05:58:25;;;;;;;11.05;5.10;;;-0.20;99.90;;;;;;5048872;28;20049;-76
2022/03/07 06:00:50;;;;;;;11.63;6.50;;;-1.70;99.90;;;;;;5049276;28;20036;-77
2022/03/07 06:03:19;;;;;;;10.77;6.38;;;-1.70;99.90;;;;;;5048138;28;20044;-77
2022/03/07 06:05:45;;;;;;;13.82;6.30;;;-1.70;99.90;;;;;;5050649;28;20045;-77
2022/03/07 06:08:11;;;;;;;11.52;6.15;;;-1.60;99.90;;;;;;5041629;28;20048;-77
2022/03/07 06:10:36;;;;;;;11.55;6.40;;;-1.60;99.90;;;;;;5054362;28;20514;-77
2022/03/07 06:13:02;;;;;;;11.38;5.90;;;-1.60;99.90;;;;;;5044427;28;20052;-77
2022/03/07 06:15:28;;;;;;;13.18;6.78;;;-1.60;99.90;;;;;;5044845;28;20029;-77
2022/03/07 06:17:56;;;;;;;11.32;6.60;;;-1.60;99.90;;;;;;5048238;28;20068;-77
2022/03/07 06:20:24;;;;;;;12.60;6.63;;;-1.60;99.90;;;;;;5043551;28;20492;-77
2022/03/07 06:22:50;;;;;;;10.18;6.07;;;-1.60;99.90;;;;;;5046284;28;20060;-76
2022/03/07 06:25:16;;;;;;;15.20;6.55;;;-1.60;99.90;;;;;;5063409;28;20078;-76
2022/03/07 06:27:42;;;;;;;16.00;6.75;;;-0.40;99.90;;;;;;5049638;28;20036;-76
2022/03/07 06:30:08;;;;;;;11.20;6.43;;;-1.60;99.90;;;;;;5065920;28;20491;-77
2022/03/07 06:32:35;;;;;;;10.60;6.55;;;-1.60;99.90;;;;;;5046911;28;20492;-77
2022/03/07 06:35:02;;;;;;;14.57;7.25;;;-1.40;99.90;;;;;;5047859;28;20043;-76
2022/03/07 06:37:27;;;;;;;10.45;6.40;;;-1.20;99.90;;;;;;5045987;28;20040;-76
2022/03/07 06:39:55;;;;;;;13.18;6.55;;;-1.60;99.90;;;;;;5043526;28;20099;-75
2022/03/07 06:42:20;;;;;;;12.98;7.20;;;-1.50;99.90;;;;;;5048761;28;20553;-78
2022/03/07 06:44:46;;;;;;;13.02;7.80;;;-1.50;99.90;;;;;;5046903;28;20044;-76
2022/03/07 06:47:12;;;;;;;12.32;7.20;;;-0.80;99.90;;;;;;5063520;28;20122;-76
2022/03/07 06:49:39;;;;;;;13.10;7.30;;;-1.50;99.90;;;;;;5037878;28;20465;-76
2022/03/07 06:52:05;;;;;;;14.93;7.05;;;-1.50;99.90;;;;;;5040113;28;20063;-75
2022/03/07 06:54:31;;;;;;;14.40;7.20;;;-1.50;99.90;;;;;;5074811;28;20037;-82
2022/03/07 06:56:57;;;;;;;13.82;7.35;;;-0.60;99.90;;;;;;5049576;28;20046;-84
2022/03/07 06:59:22;;;;;;;16.08;7.40;;;-1.40;99.90;;;;;;5045773;28;20053;-84
2022/03/07 07:01:48;;;;;;;15.40;8.20;;;-1.30;99.90;;;;;;5044718;28;20029;-77
2022/03/07 07:04:14;;;;;;;18.38;10.02;;;-1.40;99.90;;;;;;5044332;28;20052;-77
2022/03/07 07:06:39;;;;;;;15.00;7.95;;;-1.40;99.90;;;;;;5040748;28;20057;-77
2022/03/07 07:09:05;;;;;;;18.70;9.85;;;-1.40;99.90;;;;;;5042125;28;20079;-77
2022/03/07 07:11:31;;;;;;;20.30;9.88;;;-1.40;99.90;;;;;;5039625;28;20048;-77
2022/03/07 07:13:56;;;;;;;20.75;9.32;;;-1.40;99.90;;;;;;5040602;28;20159;-77
2022/03/07 07:16:22;;;;;;;20.13;9.38;;;-1.30;99.90;;;;;;5045148;28;20040;-80
2022/03/07 07:18:48;;;;;;;14.43;8.73;;;-1.00;99.90;;;;;;5043313;28;20374;-80
2022/03/07 07:21:13;;;;;;;16.23;8.65;;;-1.30;99.90;;;;;;5045916;28;20041;-79
2022/03/07 07:23:39;;;;;;;17.88;8.60;;;-1.20;99.90;;;;;;5040737;28;20036;-79
2022/03/07 07:26:06;;;;;;;14.88;9.48;;;-1.20;99.90;;;;;;5045673;28;20067;-78
2022/03/07 07:28:32;;;;;;;16.67;9.23;;;-1.10;99.90;;;;;;5041639;28;20088;-78
2022/03/07 07:30:57;;;;;;;15.98;8.30;;;-1.10;99.90;;;;;;5042668;28;20085;-78
2022/03/07 07:33:23;;;;;;;17.08;9.85;;;-1.00;99.90;;;;;;5041119;28;20092;-77
2022/03/07 07:35:49;;;;;;;16.50;8.10;;;-0.90;99.90;;;;;;5041232;28;20051;-77
2022/03/07 07:38:14;;;;;;;17.67;9.23;;;-0.90;99.90;;;;;;5070611;28;20509;-78
2022/03/07 07:40:40;;;;;;;16.02;9.50;;;-0.80;99.90;;;;;;5041874;28;20041;-80
2022/03/07 07:43:06;;;;;;;15.35;9.05;;;-0.70;99.90;;;;;;5046349;28;20420;-81
2022/03/07 07:45:32;;;;;;;20.48;9.07;;;-0.70;99.90;;;;;;5044620;28;20091;-80
2022/03/07 07:48:00;;;;;;;18.42;9.40;;;-0.70;99.90;;;;;;5037577;28;20065;-80
2022/03/07 07:50:27;;;;;;;15.35;9.27;;;-0.60;99.90;;;;;;5039542;28;20064;-80
2022/03/07 07:52:54;;;;;;;16.15;8.45;;;-0.50;99.90;;;;;;5045401;28;20053;-80
2022/03/07 07:55:21;;;;;;;17.77;9.90;;;-0.50;99.90;;;;;;5041774;28;20053;-80
2022/03/07 07:57:47;;;;;;;18.30;9.88;;;-0.40;99.90;;;;;;5043601;28;20061;-80
2022/03/07 08:00:15;;;;;;;20.30;9.77;;;-0.30;99.90;;;;;;5049496;28;20416;-80
2022/03/07 08:02:42;;;;;;;16.27;10.15;;;-0.20;99.90;;;;;;5035801;28;20041;-80
2022/03/07 08:05:08;;;;;;;21.58;9.82;;;-0.10;99.90;;;;;;5073763;28;20044;-79
2022/03/07 08:07:34;;;;;;;17.63;10.30;;;0.00;99.90;;;;;;5043900;28;20037;-80
2022/03/07 08:10:01;;;;;;;17.98;10.43;;;0.10;99.90;;;;;;5034655;28;20038;-80
2022/03/07 08:12:27;;;;;;;19.38;9.95;;;0.40;99.90;;;;;;5037516;28;20044;-80
2022/03/07 08:14:54;;;;;;;17.40;10.35;;;0.20;99.90;;;;;;5040630;28;20489;-87
2022/03/07 08:17:20;;;;;;;19.38;11.02;;;0.30;99.90;;;;;;5045961;28;20086;-88
2022/03/07 08:19:45;;;;;;;23.42;10.07;;;0.40;99.90;;;;;;5042280;28;20124;-85
2022/03/07 08:22:12;;;;;;;19.73;11.02;;;0.50;99.90;;;;;;5033744;28;23357;-83
2022/03/07 08:24:38;;;;;;;20.00;10.73;;;0.60;99.90;;;;;;5034579;28;20044;-82
2022/03/07 08:27:04;;;;;;;17.33;9.32;;;0.70;99.90;;;;;;5065109;28;20440;-83
2022/03/07 08:29:30;;;;;;;26.65;10.93;;;0.80;99.90;;;;;;5034824;28;20045;-82
2022/03/07 08:31:56;;;;;;;28.20;11.35;;;1.00;99.90;;;;;;5043301;28;20045;-84
2022/03/07 08:34:21;;;;;;;20.85;11.38;;;1.10;99.90;;;;;;5037926;28;20042;-83
2022/03/07 08:36:49;;;;;;;23.65;9.70;;;1.20;99.90;;;;;;5036891;28;20037;-83
2022/03/07 08:39:14;;;;;;;16.67;9.48;;;1.40;99.90;;;;;;5039102;28;20069;-83
2022/03/07 08:41:40;;;;;;;20.80;10.20;;;1.50;99.90;;;;;;5042435;28;20064;-82
2022/03/07 08:44:06;;;;;;;18.98;9.63;;;1.60;99.90;;;;;;5041761;28;20051;-82
2022/03/07 08:46:32;;;;;;;16.67;8.43;;;1.70;99.90;;;;;;5037992;28;20059;-83
2022/03/07 08:48:57;;;;;;;18.05;8.45;;;1.80;99.90;;;;;;5028389;28;21004;-82
2022/03/07 08:51:23;;;;;;;17.83;8.90;;;1.90;99.90;;;;;;5011336;28;20116;-82
2022/03/07 08:53:48;;;;;;;14.10;7.30;;;2.00;99.90;;;;;;5020995;28;20060;-84
2022/03/07 08:56:14;;;;;;;17.60;6.70;;;2.20;99.90;;;;;;5014976;28;20644;-84
2022/03/07 08:58:40;;;;;;;11.77;6.50;;;2.30;99.90;;;;;;5017474;28;20091;-85
2022/03/07 09:01:06;;;;;;;13.73;6.28;;;2.40;99.90;;;;;;5020585;28;20991;-84
2022/03/07 09:03:31;;;;;;;9.98;4.70;;;2.50;99.90;;;;;;5023266;28;20080;-84
2022/03/07 09:05:57;;;;;;;10.38;5.03;;;2.90;99.90;;;;;;5015400;28;20038;-84
2022/03/07 09:08:23;;;;;;;17.00;5.65;;;2.70;99.90;;;;;;5048675;28;20042;-80
2022/03/07 09:10:48;;;;;;;7.75;3.47;;;2.80;99.90;;;;;;5013590;28;20049;-81
2022/03/07 09:13:14;;;;;;;10.02;3.97;;;2.90;99.90;;;;;;5014515;28;20037;-86
2022/03/07 09:15:42;;;;;;;8.35;3.28;;;2.90;99.90;;;;;;5015243;28;20450;-81
2022/03/07 09:18:07;;;;;;;10.23;4.10;;;3.00;99.90;;;;;;5015965;28;20230;-82
2022/03/07 09:20:33;;;;;;;10.18;3.70;;;3.30;99.90;;;;;;5011076;28;20477;-84
2022/03/07 09:22:59;;;;;;;10.00;4.15;;;3.30;99.90;;;;;;5050449;28;20056;-83
2022/03/07 09:25:24;;;;;;;8.25;3.83;;;3.60;99.90;;;;;;5016736;28;20072;-82
2022/03/07 09:27:50;;;;;;;7.90;3.40;;;3.60;99.90;;;;;;5051038;28;20117;-82
2022/03/07 09:30:16;;;;;;;10.80;3.70;;;3.70;99.90;;;;;;5013059;28;20042;-82
2022/03/07 09:32:42;;;;;;;9.15;3.70;;;3.90;99.90;;;;;;5045856;28;20074;-82
2022/03/07 09:35:09;;;;;;;9.20;4.25;;;4.00;99.90;;;;;;5015491;28;20093;-84
2022/03/07 09:37:36;;;;;;;7.28;3.47;;;4.10;99.90;;;;;;5023391;28;20128;-83
2022/03/07 09:40:02;;;;;;;10.90;3.05;;;4.30;99.90;;;;;;5018305;28;20472;-83
2022/03/07 09:42:28;;;;;;;7.22;2.80;;;4.30;99.90;;;;;;5015462;28;20053;-83
2022/03/07 09:44:54;;;;;;;7.75;2.33;;;4.40;99.90;;;;;;5019446;28;20045;-81
2022/03/07 09:47:22;;;;;;;9.50;3.17;;;5.10;99.90;;;;;;5022460;28;20069;-82
2022/03/07 09:49:51;;;;;;;7.55;2.75;;;4.70;99.90;;;;;;5058473;28;20041;-84
2022/03/07 09:52:17;;;;;;;8.73;2.55;;;5.00;99.90;;;;;;5042890;28;20044;-82
2022/03/07 09:54:42;;;;;;;12.60;3.42;;;5.20;99.90;;;;;;5040879;28;20068;-82
2022/03/07 09:57:08;;;;;;;11.02;3.03;;;5.50;99.90;;;;;;5042460;28;20414;-82
2022/03/07 09:59:35;;;;;;;8.52;3.10;;;5.70;99.90;;;;;;5043116;28;20422;-82
2022/03/07 10:02:03;;;;;;;8.48;2.70;;;5.90;99.90;;;;;;5037336;28;20528;-82
2022/03/07 10:04:30;;;;;;;4.05;2.03;;;6.10;99.90;;;;;;5043214;28;20041;-83
2022/03/07 10:06:56;;;;;;;7.47;2.30;;;6.30;99.90;;;;;;5047303;28;20036;-81
2022/03/07 10:09:23;;;;;;;11.75;3.28;;;6.50;99.90;;;;;;5056338;28;20048;-84
2022/03/07 10:11:55;;;;;;;7.90;2.65;;;6.50;99.90;;;;;;5039374;28;20087;-85
2022/03/07 10:14:45;;;;;;;6.78;2.55;;;7.30;99.90;;;;;;5043867;28;20036;-85
2022/03/07 10:17:26;;;;;;;6.63;1.98;;;6.60;99.90;;;;;;5045661;28;20053;-84
2022/03/07 10:19:54;;;;;;;4.00;1.88;;;6.60;99.90;;;;;;5038267;28;20131;-87
2022/03/07 10:22:24;;;;;;;7.05;1.90;;;6.70;99.90;;;;;;5046244;28;20136;-86
2022/03/07 10:25:05;;;;;;;6.25;1.90;;;6.90;99.90;;;;;;5040210;28;20049;-86
2022/03/07 10:27:40;;;;;;;7.45;1.45;;;7.20;99.90;;;;;;5039342;28;20049;-84
2022/03/07 10:30:11;;;;;;;4.68;1.60;;;8.50;99.90;;;;;;5044014;28;20060;-86
2022/03/07 10:32:37;;;;;;;6.47;2.00;;;7.60;99.90;;;;;;5040285;28;20623;-82
2022/03/07 10:35:03;;;;;;;5.05;1.80;;;7.30;99.90;;;;;;5058329;28;20170;-83
2022/03/07 10:37:38;;;;;;;4.40;1.80;;;7.90;99.90;;;;;;5056963;28;20051;-81
2022/03/07 10:40:16;;;;;;;6.10;2.17;;;8.10;99.90;;;;;;5044576;28;20190;-82
2022/03/07 10:42:47;;;;;;;5.18;2.17;;;8.20;99.90;;;;;;5043527;28;20553;-82
2022/03/07 10:45:13;;;;;;;5.40;2.10;;;8.20;99.90;;;;;;5062529;28;20056;-82
2022/03/07 10:47:39;;;;;;;7.18;2.10;;;8.40;99.90;;;;;;5055660;28;20056;-83
2022/03/07 10:50:05;;;;;;;8.88;2.30;;;8.50;99.90;;;;;;5048580;28;20049;-81
2022/03/07 10:52:40;;;;;;;6.63;2.70;;;8.70;99.90;;;;;;5037338;28;20048;-81
2022/03/07 10:55:08;;;;;;;6.68;2.47;;;8.80;99.90;;;;;;5053705;28;20037;-80
2022/03/07 10:57:36;;;;;;;7.78;2.58;;;9.00;99.90;;;;;;5035866;28;20370;-80
2022/03/07 11:00:05;;;;;;;6.13;2.30;;;9.10;99.90;;;;;;5038925;28;20433;-78
2022/03/07 11:02:38;;;;;;;4.97;2.55;;;9.20;99.90;;;;;;5035866;28;20041;-79
2022/03/07 11:05:07;;;;;;;7.88;2.65;;;9.40;99.90;;;;;;5038799;28;20036;-79
2022/03/07 11:07:43;;;;;;;5.57;2.22;;;9.40;99.90;;;;;;5041300;28;20037;-79
2022/03/07 11:10:11;;;;;;;5.22;2.13;;;9.30;99.90;;;;;;5036080;28;20563;-80
2022/03/07 11:12:37;;;;;;;8.73;2.72;;;9.30;99.90;;;;;;5038196;28;20500;-79
2022/03/07 11:15:10;;;;;;;7.57;2.30;;;9.30;99.90;;;;;;5059726;28;20025;-79
2022/03/07 11:17:41;;;;;;;6.82;1.90;;;9.50;99.90;;;;;;5042810;28;20397;-79
2022/03/07 11:20:08;;;;;;;5.20;1.95;;;9.60;99.90;;;;;;5041523;28;20377;-79
2022/03/07 11:22:34;;;;;;;4.28;1.30;;;9.70;99.90;;;;;;5034979;28;20044;-79
2022/03/07 11:25:01;;;;;;;6.30;1.55;;;9.70;99.90;;;;;;5037760;28;20060;-79
2022/03/07 11:27:27;;;;;;;4.63;1.85;;;9.60;99.90;;;;;;5041367;28;20048;-80
2022/03/07 11:29:55;;;;;;;5.43;1.50;;;9.40;99.90;;;;;;5072374;28;20076;-80
2022/03/07 11:32:20;;;;;;;6.60;1.50;;;9.10;99.90;;;;;;5040265;28;20052;-81
2022/03/07 11:34:58;;;;;;;7.45;1.38;;;9.00;99.90;;;;;;5038173;28;20399;-80
2022/03/07 11:37:29;;;;;;;20.13;7.47;;;9.00;99.90;;;;;;5041607;28;20452;-79
2022/03/07 11:39:58;;;;;;;5.35;1.85;;;9.10;99.90;;;;;;5042093;28;20053;-80
2022/03/07 11:42:37;;;;;;;6.43;1.63;;;9.20;99.90;;;;;;5037209;28;20049;-79
2022/03/07 11:45:08;;;;;;;3.35;1.50;;;9.30;99.90;;;;;;5058040;28;20036;-78
2022/03/07 11:47:39;;;;;;;6.25;1.70;;;9.50;99.90;;;;;;5038211;28;20040;-79
2022/03/07 11:50:06;;;;;;;6.63;1.80;;;9.80;99.90;;;;;;5049740;28;20492;-79
2022/03/07 11:52:32;;;;;;;3.45;1.50;;;10.00;99.90;;;;;;5056519;28;20504;-78
2022/03/07 11:55:00;;;;;;;4.55;1.80;;;10.20;99.90;;;;;;5039018;28;20082;-78
2022/03/07 11:57:42;;;;;;;6.35;1.70;;;10.40;99.90;;;;;;5054682;28;20049;-78
2022/03/07 12:00:19;;;;;;;4.65;2.00;;;10.40;99.90;;;;;;5037951;28;20083;-78
2022/03/07 12:02:48;;;;;;;3.70;1.35;;;10.60;99.90;;;;;;5058557;28;20056;-78
2022/03/07 12:05:32;;;;;;;3.60;1.10;;;10.70;99.90;;;;;;5055631;28;20051;-78
2022/03/07 12:08:17;;;;;;;3.63;1.57;;;10.80;98.00;;;;;;5056736;28;20041;-78
2022/03/07 12:10:59;;;;;;;4.57;1.42;;;10.70;98.50;;;;;;5055586;28;20048;-78
2022/03/07 12:13:25;;;;;;;5.50;1.80;;;10.70;98.60;;;;;;5054769;28;20094;-81
2022/03/07 12:15:55;;;;;;;4.53;1.30;;;10.80;99.90;;;;;;5039543;28;20052;-81
2022/03/07 12:18:22;;;;;;;4.63;1.50;;;10.90;99.90;;;;;;5032724;28;20041;-80
2022/03/07 12:20:54;;;;;;;3.97;1.38;;;10.90;99.90;;;;;;5055801;28;20047;-80
2022/03/07 12:23:22;;;;;;;4.20;1.65;;;11.00;99.90;;;;;;5051480;28;20055;-81
2022/03/07 12:25:57;;;;;;;4.93;1.92;;;11.20;99.90;;;;;;5036859;28;20040;-80
2022/03/07 12:28:28;;;;;;;6.88;1.60;;;11.20;99.30;;;;;;5056138;28;20086;-80
2022/03/07 12:30:54;;;;;;;3.20;1.30;;;11.20;98.20;;;;;;5050867;28;20084;-80
2022/03/07 12:33:20;;;;;;;3.97;1.20;;;11.30;98.40;;;;;;5040044;28;20049;-79
2022/03/07 12:35:45;;;;;;;4.35;1.25;;;11.30;98.60;;;;;;5037773;28;20045;-80
2022/03/07 12:38:11;;;;;;;3.30;1.00;;;11.30;97.10;;;;;;5035077;28;20049;-79
2022/03/07 12:40:38;;;;;;;6.35;1.20;;;11.20;96.40;;;;;;5053727;28;20051;-80
2022/03/07 12:43:05;;;;;;;4.07;1.42;;;11.00;98.00;;;;;;5050462;28;20503;-80